createdAt,value
2017-06-15T00:00:56.988Z,0
2017-06-15T00:01:56.756Z,0
2017-06-15T00:02:55.834Z,0
2017-06-15T00:03:55.532Z,0
2017-06-15T00:04:56.133Z,0
2017-06-15T00:05:55.474Z,0
2017-06-15T00:06:55.773Z,0
2017-06-15T00:07:56.634Z,0
2017-06-15T00:08:55.796Z,0
2017-06-15T00:09:56.317Z,0
2017-06-15T00:10:56.820Z,0
2017-06-15T00:11:56.633Z,0
2017-06-15T00:12:55.434Z,0
2017-06-15T00:13:55.423Z,0
2017-06-15T00:14:55.738Z,0
2017-06-15T00:15:55.734Z,0
2017-06-15T00:16:55.725Z,0
2017-06-15T00:17:56.180Z,0
2017-06-15T00:18:55.386Z,0
2017-06-15T00:19:56.063Z,0
2017-06-15T00:20:55.689Z,0
2017-06-15T00:21:55.368Z,0
2017-06-15T00:22:56.736Z,0
2017-06-15T00:23:56.247Z,0
2017-06-15T00:24:56.149Z,0
2017-06-15T00:25:55.680Z,0
2017-06-15T00:26:55.664Z,0
2017-06-15T00:27:55.390Z,0
2017-06-15T00:28:55.316Z,0
2017-06-15T00:29:55.956Z,0
2017-06-15T00:30:56.323Z,0
2017-06-15T00:31:56.667Z,0
2017-06-15T00:32:55.782Z,0
2017-06-15T00:33:55.925Z,0
2017-06-15T00:34:55.596Z,0
2017-06-15T00:35:55.602Z,0
2017-06-15T00:36:55.598Z,0
2017-06-15T00:37:56.379Z,0
2017-06-15T00:38:55.244Z,0
2017-06-15T00:39:55.566Z,0
2017-06-15T00:40:57.023Z,0
2017-06-15T00:41:56.910Z,0
2017-06-15T00:42:55.552Z,0
2017-06-15T00:43:55.216Z,0
2017-06-15T00:44:55.543Z,0
2017-06-15T00:45:55.850Z,0
2017-06-15T00:46:55.211Z,0
2017-06-15T00:47:56.211Z,0
2017-06-15T00:48:56.540Z,0
2017-06-15T00:49:55.837Z,0
2017-06-15T00:50:55.824Z,0
2017-06-15T00:51:55.791Z,0
2017-06-15T00:52:55.643Z,0
2017-06-15T00:53:55.135Z,0
2017-06-15T00:54:55.367Z,0
2017-06-15T00:55:56.659Z,0
2017-06-15T00:56:56.387Z,0
2017-06-15T00:57:55.427Z,0
2017-06-15T00:58:55.116Z,0
2017-06-15T00:59:55.095Z,0
2017-06-15T01:00:55.748Z,0
2017-06-15T01:01:55.090Z,0
2017-06-15T01:02:55.073Z,0
2017-06-15T01:03:55.385Z,0
2017-06-15T01:04:55.389Z,0
2017-06-15T01:05:56.619Z,0
2017-06-15T01:06:56.716Z,0
2017-06-15T01:07:55.371Z,0
2017-06-15T01:08:55.371Z,0
2017-06-15T01:09:55.378Z,0
2017-06-15T01:10:55.616Z,0
2017-06-15T01:11:55.327Z,0
2017-06-15T01:12:55.335Z,0
2017-06-15T01:13:55.309Z,0
2017-06-15T01:14:54.981Z,0
2017-06-15T01:15:55.986Z,0
2017-06-15T01:16:56.247Z,0
2017-06-15T01:17:55.602Z,0
2017-06-15T01:18:55.270Z,0
2017-06-15T01:19:54.945Z,0
2017-06-15T01:20:55.597Z,0
2017-06-15T01:21:56.034Z,0
2017-06-15T01:22:56.125Z,0
2017-06-15T01:23:56.641Z,0
2017-06-15T01:24:55.560Z,0
2017-06-15T01:25:55.223Z,0
2017-06-15T01:26:54.921Z,0
2017-06-15T01:27:55.843Z,0
2017-06-15T01:28:55.339Z,0
2017-06-15T01:29:55.212Z,0
2017-06-15T01:30:55.501Z,0
2017-06-15T01:31:55.516Z,0
2017-06-15T01:32:54.861Z,0
2017-06-15T01:33:55.483Z,0
2017-06-15T01:34:55.494Z,0
2017-06-15T01:35:55.144Z,0
2017-06-15T01:36:55.959Z,0
2017-06-15T01:37:55.845Z,0
2017-06-15T01:38:56.277Z,0
2017-06-15T01:39:55.172Z,0
2017-06-15T01:40:55.443Z,0
2017-06-15T01:41:55.114Z,0
2017-06-15T01:42:55.107Z,0
2017-06-15T01:43:56.239Z,0
2017-06-15T01:44:55.618Z,0
2017-06-15T01:45:55.083Z,0
2017-06-15T01:46:54.737Z,0
2017-06-15T01:47:55.585Z,0
2017-06-15T01:48:55.784Z,0
2017-06-15T01:49:55.062Z,0
2017-06-15T01:50:55.022Z,0
2017-06-15T01:51:55.353Z,0
2017-06-15T01:52:55.110Z,0
2017-06-15T01:53:55.702Z,0
2017-06-15T01:54:55.143Z,0
2017-06-15T01:55:54.674Z,0
2017-06-15T01:56:54.361Z,0
2017-06-15T01:57:55.730Z,0
2017-06-15T01:58:55.287Z,0
2017-06-15T01:59:54.959Z,0
2017-06-15T02:00:55.364Z,0
2017-06-15T02:01:56.089Z,0
2017-06-15T02:02:55.035Z,0
2017-06-15T02:03:55.249Z,0
2017-06-15T02:04:55.267Z,0
2017-06-15T02:05:55.126Z,0
2017-06-15T02:06:55.887Z,0
2017-06-15T02:07:54.580Z,0
2017-06-15T02:08:55.372Z,0
2017-06-15T02:09:55.347Z,0
2017-06-15T02:10:54.881Z,0
2017-06-15T02:11:54.547Z,0
2017-06-15T02:12:54.881Z,0
2017-06-15T02:13:55.120Z,0
2017-06-15T02:14:55.166Z,0
2017-06-15T02:15:55.240Z,4
2017-06-15T02:16:55.205Z,4
2017-06-15T02:17:54.837Z,4
2017-06-15T02:18:54.810Z,4
2017-06-15T02:19:55.052Z,0
2017-06-15T02:20:54.791Z,4
2017-06-15T02:21:54.804Z,4
2017-06-15T02:22:55.218Z,4
2017-06-15T02:23:55.413Z,4
2017-06-15T02:24:54.760Z,4
2017-06-15T02:25:55.142Z,8
2017-06-15T02:26:55.066Z,4
2017-06-15T02:27:54.420Z,8
2017-06-15T02:28:54.408Z,8
2017-06-15T02:29:55.990Z,8
2017-06-15T02:30:55.052Z,12
2017-06-15T02:31:54.707Z,12
2017-06-15T02:32:55.015Z,16
2017-06-15T02:33:54.379Z,16
2017-06-15T02:34:54.291Z,20
2017-06-15T02:35:56.039Z,20
2017-06-15T02:36:56.381Z,24
2017-06-15T02:37:54.351Z,24
2017-06-15T02:38:54.333Z,28
2017-06-15T02:39:55.750Z,32
2017-06-15T02:40:54.312Z,36
2017-06-15T02:41:54.308Z,40
2017-06-15T02:42:54.616Z,44
2017-06-15T02:43:54.610Z,48
2017-06-15T02:44:55.047Z,52
2017-06-15T02:45:56.076Z,60
2017-06-15T02:46:55.448Z,64
2017-06-15T02:47:54.575Z,72
2017-06-15T02:48:54.566Z,80
2017-06-15T02:49:55.851Z,88
2017-06-15T02:50:54.274Z,96
2017-06-15T02:51:54.552Z,104
2017-06-15T02:52:54.856Z,112
2017-06-15T02:53:54.872Z,120
2017-06-15T02:54:54.228Z,132
2017-06-15T02:55:55.275Z,144
2017-06-15T02:56:54.742Z,156
2017-06-15T02:57:54.827Z,172
2017-06-15T02:58:54.771Z,188
2017-06-15T02:59:55.302Z,204
2017-06-15T03:00:54.951Z,216
2017-06-15T03:01:54.795Z,236
2017-06-15T03:02:55.073Z,252
2017-06-15T03:03:54.896Z,268
2017-06-15T03:04:55.409Z,292
2017-06-15T03:05:54.753Z,308
2017-06-15T03:06:54.423Z,332
2017-06-15T03:07:54.570Z,352
2017-06-15T03:08:54.635Z,376
2017-06-15T03:09:55.205Z,396
2017-06-15T03:10:54.996Z,420
2017-06-15T03:11:55.467Z,448
2017-06-15T03:12:54.758Z,468
2017-06-15T03:13:54.040Z,496
2017-06-15T03:14:54.933Z,520
2017-06-15T03:15:55.144Z,544
2017-06-15T03:16:54.019Z,564
2017-06-15T03:17:54.854Z,592
2017-06-15T03:18:55.624Z,620
2017-06-15T03:19:54.528Z,648
2017-06-15T03:20:53.992Z,672
2017-06-15T03:21:54.648Z,700
2017-06-15T03:22:54.641Z,724
2017-06-15T03:23:55.441Z,752
2017-06-15T03:24:54.909Z,780
2017-06-15T03:25:54.872Z,796
2017-06-15T03:26:54.596Z,808
2017-06-15T03:27:54.570Z,816
2017-06-15T03:28:54.269Z,832
2017-06-15T03:29:54.251Z,852
2017-06-15T03:30:55.518Z,872
2017-06-15T03:31:54.536Z,892
2017-06-15T03:32:54.525Z,924
2017-06-15T03:33:54.225Z,960
2017-06-15T03:34:53.873Z,1004
2017-06-15T03:35:55.017Z,1056
2017-06-15T03:36:54.686Z,1092
2017-06-15T03:37:53.847Z,1120
2017-06-15T03:38:55.193Z,1148
2017-06-15T03:39:54.498Z,1176
2017-06-15T03:40:54.137Z,1184
2017-06-15T03:41:54.140Z,1216
2017-06-15T03:42:54.446Z,1264
2017-06-15T03:43:55.102Z,1320
2017-06-15T03:44:54.979Z,1372
2017-06-15T03:45:55.245Z,1420
2017-06-15T03:46:53.774Z,1460
2017-06-15T03:47:53.762Z,1496
2017-06-15T03:48:53.759Z,1536
2017-06-15T03:49:54.392Z,1568
2017-06-15T03:50:55.751Z,1604
2017-06-15T03:51:55.757Z,1632
2017-06-15T03:52:54.205Z,1664
2017-06-15T03:53:54.357Z,1700
2017-06-15T03:54:54.363Z,1732
2017-06-15T03:55:54.350Z,1764
2017-06-15T03:56:54.028Z,1788
2017-06-15T03:57:55.147Z,1816
2017-06-15T03:58:55.113Z,1844
2017-06-15T03:59:55.631Z,1872
2017-06-15T04:00:54.348Z,1896
2017-06-15T04:01:53.985Z,1920
2017-06-15T04:02:54.287Z,1952
2017-06-15T04:03:54.056Z,1976
2017-06-15T04:04:54.025Z,2008
2017-06-15T04:05:54.701Z,2032
2017-06-15T04:06:53.933Z,2064
2017-06-15T04:07:53.608Z,2096
2017-06-15T04:08:54.334Z,2120
2017-06-15T04:09:53.930Z,2148
2017-06-15T04:10:54.902Z,2172
2017-06-15T04:11:54.821Z,2196
2017-06-15T04:12:53.895Z,2224
2017-06-15T04:13:53.557Z,2244
2017-06-15T04:14:53.575Z,2264
2017-06-15T04:15:53.542Z,2288
2017-06-15T04:16:54.634Z,2308
2017-06-15T04:17:55.166Z,2340
2017-06-15T04:18:53.905Z,2360
2017-06-15T04:19:53.833Z,2380
2017-06-15T04:20:53.828Z,2408
2017-06-15T04:21:53.823Z,2432
2017-06-15T04:22:53.819Z,2448
2017-06-15T04:23:54.130Z,2468
2017-06-15T04:24:54.182Z,2484
2017-06-15T04:25:54.681Z,2500
2017-06-15T04:26:55.463Z,2520
2017-06-15T04:27:53.136Z,2540
2017-06-15T04:28:53.773Z,2564
2017-06-15T04:29:53.779Z,2588
2017-06-15T04:30:54.081Z,2600
2017-06-15T04:31:54.512Z,2616
2017-06-15T04:32:54.459Z,2628
2017-06-15T04:33:53.749Z,2640
2017-06-15T04:34:54.047Z,2652
2017-06-15T04:35:53.905Z,2664
2017-06-15T04:36:54.873Z,2680
2017-06-15T04:37:55.093Z,2696
2017-06-15T04:38:53.895Z,2700
2017-06-15T04:39:53.396Z,2704
2017-06-15T04:40:53.700Z,2704
2017-06-15T04:41:53.836Z,2704
2017-06-15T04:42:53.383Z,2708
2017-06-15T04:43:54.115Z,2708
2017-06-15T04:44:54.239Z,2716
2017-06-15T04:45:53.578Z,2724
2017-06-15T04:46:53.805Z,2728
2017-06-15T04:47:53.756Z,2740
2017-06-15T04:48:54.974Z,2752
2017-06-15T04:49:53.601Z,2764
2017-06-15T04:50:53.941Z,2776
2017-06-15T04:51:53.673Z,2788
2017-06-15T04:52:53.631Z,2804
2017-06-15T04:53:53.909Z,2820
2017-06-15T04:54:53.799Z,2836
2017-06-15T04:55:53.523Z,2856
2017-06-15T04:56:53.934Z,2872
2017-06-15T04:57:53.903Z,2892
2017-06-15T04:58:53.264Z,2916
2017-06-15T04:59:54.548Z,2932
2017-06-15T05:00:53.949Z,2956
2017-06-15T05:01:53.554Z,2976
2017-06-15T05:02:53.868Z,3004
2017-06-15T05:03:53.557Z,3024
2017-06-15T05:04:53.846Z,3044
2017-06-15T05:05:54.749Z,3056
2017-06-15T05:06:54.310Z,3060
2017-06-15T05:07:53.838Z,3072
2017-06-15T05:08:53.512Z,3068
2017-06-15T05:09:53.522Z,3048
2017-06-15T05:10:53.516Z,3044
2017-06-15T05:11:54.071Z,3044
2017-06-15T05:12:53.817Z,3024
2017-06-15T05:13:55.094Z,3008
2017-06-15T05:14:53.803Z,3016
2017-06-15T05:15:53.491Z,3048
2017-06-15T05:16:53.814Z,3068
2017-06-15T05:17:54.375Z,3088
2017-06-15T05:18:54.602Z,3096
2017-06-15T05:19:53.473Z,3092
2017-06-15T05:20:53.465Z,3168
2017-06-15T05:21:53.764Z,3224
2017-06-15T05:22:53.791Z,3288
2017-06-15T05:23:53.754Z,3464
2017-06-15T05:24:54.085Z,3460
2017-06-15T05:25:55.062Z,3372
2017-06-15T05:26:53.467Z,3420
2017-06-15T05:27:53.093Z,3416
2017-06-15T05:28:53.089Z,3416
2017-06-15T05:29:53.424Z,3480
2017-06-15T05:30:53.405Z,3588
2017-06-15T05:31:53.721Z,4016
2017-06-15T05:32:53.399Z,4636
2017-06-15T05:33:53.713Z,4344
2017-06-15T05:34:53.852Z,3948
2017-06-15T05:35:55.174Z,5424
2017-06-15T05:36:53.795Z,5296
2017-06-15T05:37:53.697Z,4432
2017-06-15T05:38:53.046Z,3772
2017-06-15T05:39:53.684Z,3588
2017-06-15T05:40:53.697Z,3724
2017-06-15T05:41:53.366Z,3756
2017-06-15T05:42:53.358Z,3712
2017-06-15T05:43:53.349Z,3700
2017-06-15T05:44:53.347Z,4236
2017-06-15T05:45:53.663Z,3832
2017-06-15T05:46:53.017Z,3900
2017-06-15T05:47:53.655Z,3840
2017-06-15T05:48:53.653Z,4072
2017-06-15T05:49:53.662Z,3812
2017-06-15T05:50:53.650Z,4336
2017-06-15T05:51:53.062Z,4092
2017-06-15T05:52:53.647Z,3756
2017-06-15T05:53:53.307Z,3720
2017-06-15T05:54:52.743Z,3744
2017-06-15T05:55:53.640Z,3876
2017-06-15T05:56:53.304Z,3640
2017-06-15T05:57:52.997Z,3676
2017-06-15T05:58:53.311Z,3736
2017-06-15T05:59:53.314Z,3732
2017-06-15T06:00:53.291Z,3696
2017-06-15T06:01:53.286Z,3980
2017-06-15T06:02:53.303Z,3836
2017-06-15T06:03:52.979Z,3836
2017-06-15T06:04:53.648Z,3964
2017-06-15T06:05:53.291Z,3944
2017-06-15T06:06:53.273Z,3900
2017-06-15T06:07:53.592Z,4668
2017-06-15T06:08:52.624Z,5276
2017-06-15T06:09:52.950Z,5480
2017-06-15T06:10:53.587Z,5648
2017-06-15T06:11:53.289Z,4580
2017-06-15T06:12:52.632Z,4012
2017-06-15T06:13:52.941Z,4008
2017-06-15T06:14:53.251Z,4036
2017-06-15T06:15:53.571Z,4148
2017-06-15T06:16:52.928Z,4144
2017-06-15T06:17:52.927Z,4256
2017-06-15T06:18:53.571Z,4276
2017-06-15T06:19:53.248Z,4368
2017-06-15T06:20:53.555Z,4308
2017-06-15T06:21:53.233Z,4200
2017-06-15T06:22:53.559Z,4172
2017-06-15T06:23:53.560Z,4192
2017-06-15T06:24:53.547Z,4240
2017-06-15T06:25:53.236Z,4292
2017-06-15T06:26:52.922Z,4252
2017-06-15T06:27:52.922Z,4256
2017-06-15T06:28:52.895Z,4276
2017-06-15T06:29:53.225Z,4320
2017-06-15T06:30:52.931Z,4380
2017-06-15T06:31:53.240Z,4480
2017-06-15T06:32:53.549Z,4648
2017-06-15T06:33:53.530Z,5276
2017-06-15T06:34:53.554Z,5768
2017-06-15T06:35:53.225Z,12460
2017-06-15T06:36:53.098Z,20736
2017-06-15T06:37:53.199Z,34080
2017-06-15T06:38:53.203Z,45184
2017-06-15T06:39:53.520Z,49280
2017-06-15T06:40:53.200Z,49216
2017-06-15T06:41:53.196Z,49920
2017-06-15T06:42:53.214Z,49728
2017-06-15T06:43:53.193Z,50560
2017-06-15T06:44:52.874Z,50880
2017-06-15T06:45:53.192Z,49760
2017-06-15T06:46:53.518Z,47136
2017-06-15T06:47:52.874Z,47136
2017-06-15T06:48:53.211Z,48352
2017-06-15T06:49:52.875Z,46528
2017-06-15T06:50:53.522Z,45664
2017-06-15T06:51:53.540Z,47648
2017-06-15T06:52:53.531Z,47744
2017-06-15T06:53:53.234Z,47040
2017-06-15T06:54:53.534Z,50368
2017-06-15T06:55:53.553Z,52000
2017-06-15T06:56:53.235Z,53024
2017-06-15T06:57:53.220Z,49312
2017-06-15T06:58:53.235Z,48096
2017-06-15T06:59:53.558Z,48928
2017-06-15T07:00:53.575Z,49856
2017-06-15T07:01:52.918Z,51040
2017-06-15T07:02:52.936Z,53632
2017-06-15T07:03:53.251Z,54720
2017-06-15T07:04:53.267Z,53696
2017-06-15T07:05:52.945Z,54144
2017-06-15T07:06:53.297Z,54272
2017-06-15T07:07:53.269Z,57184
2017-06-15T07:08:52.959Z,57120
2017-06-15T07:09:53.609Z,55424
2017-06-15T07:10:53.612Z,53888
2017-06-15T07:11:53.633Z,52512
2017-06-15T07:12:52.984Z,53504
2017-06-15T07:13:53.312Z,54720
2017-06-15T07:14:52.998Z,57888
2017-06-15T07:15:53.027Z,61184
2017-06-15T07:16:53.016Z,56288
2017-06-15T07:17:53.339Z,50624
2017-06-15T07:18:53.672Z,48896
2017-06-15T07:19:53.671Z,52512
2017-06-15T07:20:53.360Z,55520
2017-06-15T07:21:53.043Z,51744
2017-06-15T07:22:53.700Z,48960
2017-06-15T07:23:53.704Z,53632
2017-06-15T07:24:53.091Z,54752
2017-06-15T07:25:53.718Z,50432
2017-06-15T07:26:53.732Z,46016
2017-06-15T07:27:53.424Z,47808
2017-06-15T07:28:53.748Z,53216
2017-06-15T07:29:53.755Z,53376
2017-06-15T07:30:53.771Z,53536
2017-06-15T07:31:53.457Z,53312
2017-06-15T07:32:53.775Z,51872
2017-06-15T07:33:53.138Z,51200
2017-06-15T07:34:53.148Z,52864
2017-06-15T07:35:53.500Z,56192
2017-06-15T07:36:53.816Z,54784
2017-06-15T07:37:53.819Z,52576
2017-06-15T07:38:53.189Z,53728
2017-06-15T07:39:53.836Z,53472
2017-06-15T07:40:53.520Z,51808
2017-06-15T07:41:53.898Z,51232
2017-06-15T07:42:53.538Z,48224
2017-06-15T07:43:53.579Z,46944
2017-06-15T07:44:53.236Z,47328
2017-06-15T07:45:52.942Z,49216
2017-06-15T07:46:53.900Z,51488
2017-06-15T07:47:53.263Z,55712
2017-06-15T07:48:53.602Z,54720
2017-06-15T07:49:53.607Z,53056
2017-06-15T07:50:53.930Z,49792
2017-06-15T07:51:53.616Z,33088
2017-06-15T07:52:53.642Z,13872
2017-06-15T07:53:53.957Z,8688
2017-06-15T07:54:53.648Z,8116
2017-06-15T07:55:53.676Z,7760
2017-06-15T07:56:54.008Z,7564
2017-06-15T07:57:53.674Z,7400
2017-06-15T07:58:53.719Z,7256
2017-06-15T07:59:53.694Z,7136
2017-06-15T08:00:53.386Z,7020
2017-06-15T08:01:53.916Z,6992
2017-06-15T08:02:53.724Z,6948
2017-06-15T08:03:54.046Z,6860
2017-06-15T08:04:53.734Z,6792
2017-06-15T08:05:54.080Z,6720
2017-06-15T08:06:53.433Z,6692
2017-06-15T08:07:54.095Z,6684
2017-06-15T08:08:53.773Z,6676
2017-06-15T08:09:53.803Z,6692
2017-06-15T08:10:54.111Z,6728
2017-06-15T08:11:53.796Z,6760
2017-06-15T08:12:54.134Z,6788
2017-06-15T08:13:54.132Z,6728
2017-06-15T08:14:54.143Z,6716
2017-06-15T08:15:53.537Z,6760
2017-06-15T08:16:53.513Z,6736
2017-06-15T08:17:54.164Z,6716
2017-06-15T08:18:53.852Z,6740
2017-06-15T08:19:53.862Z,6784
2017-06-15T08:20:54.189Z,6784
2017-06-15T08:21:54.200Z,6720
2017-06-15T08:22:53.877Z,6644
2017-06-15T08:23:53.238Z,6580
2017-06-15T08:24:53.568Z,6508
2017-06-15T08:25:53.893Z,6420
2017-06-15T08:26:53.923Z,6304
2017-06-15T08:27:53.907Z,6188
2017-06-15T08:28:53.613Z,6084
2017-06-15T08:29:54.260Z,6004
2017-06-15T08:30:53.920Z,5972
2017-06-15T08:31:53.928Z,5984
2017-06-15T08:32:54.262Z,5984
2017-06-15T08:33:53.943Z,5984
2017-06-15T08:34:54.272Z,6000
2017-06-15T08:35:53.634Z,5976
2017-06-15T08:36:53.313Z,5936
2017-06-15T08:37:53.964Z,5924
2017-06-15T08:38:54.298Z,5908
2017-06-15T08:39:54.309Z,5828
2017-06-15T08:40:53.346Z,5860
2017-06-15T08:41:53.335Z,5840
2017-06-15T08:42:53.989Z,5820
2017-06-15T08:43:54.312Z,5756
2017-06-15T08:44:53.998Z,5788
2017-06-15T08:45:53.365Z,5772
2017-06-15T08:46:54.026Z,5700
2017-06-15T08:47:53.691Z,5660
2017-06-15T08:48:54.337Z,5580
2017-06-15T08:49:54.360Z,5596
2017-06-15T08:50:54.047Z,5616
2017-06-15T08:51:54.026Z,5592
2017-06-15T08:52:54.033Z,5592
2017-06-15T08:53:54.040Z,5604
2017-06-15T08:54:54.045Z,5624
2017-06-15T08:55:53.724Z,5576
2017-06-15T08:56:54.373Z,5604
2017-06-15T08:57:54.062Z,5616
2017-06-15T08:58:54.063Z,5596
2017-06-15T09:00:00.503Z,5540
2017-06-15T09:00:54.090Z,5560
2017-06-15T09:01:53.751Z,5608
2017-06-15T09:02:54.402Z,5660
2017-06-15T09:03:54.078Z,5696
2017-06-15T09:04:54.095Z,5716
2017-06-15T09:05:54.414Z,5716
2017-06-15T09:06:54.097Z,5800
2017-06-15T09:07:54.106Z,5864
2017-06-15T09:08:54.424Z,5904
2017-06-15T09:09:54.107Z,5884
2017-06-15T09:10:54.429Z,5828
2017-06-15T09:11:54.115Z,5852
2017-06-15T09:12:54.115Z,5884
2017-06-15T09:13:54.142Z,5864
2017-06-15T09:14:54.146Z,5760
2017-06-15T09:15:54.458Z,5684
2017-06-15T09:16:54.136Z,5640
2017-06-15T09:17:54.157Z,5628
2017-06-15T09:18:54.141Z,5532
2017-06-15T09:19:53.823Z,5428
2017-06-15T09:20:53.828Z,5328
2017-06-15T09:21:54.149Z,5224
2017-06-15T09:22:53.847Z,5136
2017-06-15T09:23:54.157Z,5044
2017-06-15T09:24:53.851Z,5008
2017-06-15T09:25:53.853Z,5092
2017-06-15T09:26:54.170Z,5240
2017-06-15T09:27:53.540Z,5308
2017-06-15T09:28:54.178Z,5408
2017-06-15T09:29:54.185Z,5472
2017-06-15T09:30:53.864Z,5472
2017-06-15T09:31:54.194Z,5448
2017-06-15T09:32:54.212Z,5424
2017-06-15T09:33:53.554Z,5492
2017-06-15T09:34:53.885Z,5552
2017-06-15T09:35:54.216Z,5604
2017-06-15T09:36:53.562Z,5592
2017-06-15T09:37:54.234Z,5520
2017-06-15T09:38:54.216Z,5540
2017-06-15T09:39:54.227Z,5680
2017-06-15T09:40:54.230Z,5820
2017-06-15T09:41:54.254Z,5824
2017-06-15T09:42:53.912Z,5816
2017-06-15T09:43:54.560Z,5800
2017-06-15T09:44:54.565Z,5664
2017-06-15T09:45:54.252Z,5508
2017-06-15T09:46:54.569Z,5472
2017-06-15T09:47:53.931Z,5412
2017-06-15T09:48:54.585Z,5292
2017-06-15T09:49:54.597Z,5248
2017-06-15T09:50:54.591Z,5176
2017-06-15T09:51:53.942Z,5172
2017-06-15T09:52:54.612Z,5168
2017-06-15T09:53:54.295Z,5160
2017-06-15T09:54:54.323Z,5184
2017-06-15T09:55:53.961Z,5104
2017-06-15T09:56:54.610Z,4924
2017-06-15T09:57:53.970Z,4920
2017-06-15T09:58:54.294Z,4756
2017-06-15T09:59:54.619Z,4728
2017-06-15T10:00:54.300Z,4728
2017-06-15T10:01:54.315Z,4692
2017-06-15T10:02:53.667Z,4616
2017-06-15T10:03:53.989Z,4600
2017-06-15T10:04:54.648Z,4560
2017-06-15T10:05:54.660Z,4552
2017-06-15T10:06:54.318Z,4560
2017-06-15T10:07:54.645Z,4528
2017-06-15T10:08:54.646Z,4552
2017-06-15T10:09:54.328Z,4424
2017-06-15T10:10:54.655Z,4532
2017-06-15T10:11:54.014Z,4524
2017-06-15T10:12:54.667Z,4316
2017-06-15T10:13:54.668Z,4392
2017-06-15T10:14:54.030Z,4428
2017-06-15T10:15:54.671Z,4408
2017-06-15T10:16:54.356Z,4380
2017-06-15T10:17:53.715Z,4404
2017-06-15T10:18:54.048Z,4388
2017-06-15T10:19:54.048Z,4408
2017-06-15T10:20:54.373Z,4400
2017-06-15T10:21:54.699Z,4372
2017-06-15T10:22:54.720Z,4316
2017-06-15T10:23:54.709Z,4336
2017-06-15T10:24:54.709Z,4352
2017-06-15T10:25:54.403Z,4308
2017-06-15T10:26:54.394Z,4288
2017-06-15T10:27:54.718Z,4264
2017-06-15T10:28:54.400Z,4192
2017-06-15T10:29:54.747Z,4144
2017-06-15T10:30:54.753Z,4272
2017-06-15T10:31:54.096Z,4312
2017-06-15T10:32:54.416Z,4328
2017-06-15T10:33:54.429Z,4312
2017-06-15T10:34:54.759Z,4320
2017-06-15T10:35:54.749Z,4336
2017-06-15T10:36:54.447Z,4336
2017-06-15T10:37:54.752Z,4448
2017-06-15T10:38:54.761Z,4808
2017-06-15T10:39:54.440Z,5184
2017-06-15T10:40:54.490Z,5364
2017-06-15T10:41:54.772Z,5336
2017-06-15T10:42:54.777Z,5288
2017-06-15T10:43:54.451Z,5260
2017-06-15T10:44:53.813Z,5632
2017-06-15T10:45:54.459Z,5692
2017-06-15T10:46:54.786Z,5612
2017-06-15T10:47:54.788Z,5628
2017-06-15T10:48:54.471Z,5932
2017-06-15T10:49:54.474Z,5860
2017-06-15T10:50:54.476Z,5324
2017-06-15T10:51:54.162Z,4880
2017-06-15T10:52:54.808Z,4824
2017-06-15T10:53:54.815Z,4680
2017-06-15T10:54:54.493Z,4484
2017-06-15T10:55:54.506Z,4404
2017-06-15T10:56:54.200Z,4360
2017-06-15T10:57:54.823Z,4380
2017-06-15T10:58:54.832Z,4488
2017-06-15T10:59:54.194Z,4724
2017-06-15T11:00:54.835Z,5092
2017-06-15T11:01:54.197Z,4908
2017-06-15T11:02:54.843Z,4748
2017-06-15T11:03:54.523Z,4608
2017-06-15T11:04:54.855Z,4476
2017-06-15T11:05:54.209Z,4436
2017-06-15T11:06:54.881Z,4560
2017-06-15T11:07:54.543Z,4716
2017-06-15T11:08:54.885Z,5044
2017-06-15T11:09:54.564Z,5420
2017-06-15T11:10:54.226Z,5768
2017-06-15T11:11:54.902Z,6120
2017-06-15T11:12:54.565Z,6088
2017-06-15T11:13:54.257Z,5900
2017-06-15T11:14:54.576Z,5924
2017-06-15T11:15:54.596Z,5456
2017-06-15T11:16:54.301Z,5252
2017-06-15T11:17:54.582Z,5032
2017-06-15T11:18:54.609Z,4736
2017-06-15T11:19:54.282Z,4328
2017-06-15T11:20:54.919Z,4180
2017-06-15T11:21:54.936Z,4176
2017-06-15T11:22:54.286Z,4176
2017-06-15T11:23:54.616Z,4172
2017-06-15T11:24:54.626Z,4192
2017-06-15T11:25:55.282Z,4296
2017-06-15T11:26:54.941Z,4340
2017-06-15T11:27:55.017Z,4584
2017-06-15T11:28:54.628Z,4912
2017-06-15T11:29:54.631Z,5096
2017-06-15T11:30:54.998Z,4964
2017-06-15T11:31:54.954Z,4852
2017-06-15T11:32:54.318Z,4716
2017-06-15T11:33:54.994Z,4528
2017-06-15T11:34:54.989Z,4700
2017-06-15T11:35:54.986Z,4960
2017-06-15T11:36:54.681Z,5240
2017-06-15T11:37:54.340Z,5600
2017-06-15T11:38:55.006Z,5752
2017-06-15T11:39:54.999Z,6136
2017-06-15T11:40:55.015Z,5996
2017-06-15T11:41:54.699Z,6128
2017-06-15T11:42:55.043Z,5936
2017-06-15T11:43:55.021Z,5608
2017-06-15T11:44:54.697Z,5216
2017-06-15T11:45:54.367Z,5236
2017-06-15T11:46:54.046Z,5136
2017-06-15T11:47:54.719Z,4776
2017-06-15T11:48:54.716Z,4580
2017-06-15T11:49:55.027Z,4544
2017-06-15T11:50:54.387Z,4488
2017-06-15T11:51:55.056Z,4356
2017-06-15T11:52:55.090Z,4352
2017-06-15T11:53:55.049Z,3772
2017-06-15T11:54:55.079Z,4220
2017-06-15T11:55:54.435Z,4272
2017-06-15T11:56:54.732Z,4656
2017-06-15T11:57:55.077Z,4572
2017-06-15T11:58:54.423Z,5624
2017-06-15T11:59:54.426Z,6544
2017-06-15T12:00:54.790Z,6944
2017-06-15T12:01:54.761Z,7620
2017-06-15T12:02:54.756Z,8128
2017-06-15T12:03:54.443Z,8076
2017-06-15T12:04:55.088Z,6764
2017-06-15T12:05:54.823Z,6032
2017-06-15T12:06:54.809Z,5884
2017-06-15T12:07:54.773Z,5408
2017-06-15T12:08:54.781Z,5536
2017-06-15T12:09:54.839Z,6684
2017-06-15T12:10:55.133Z,7952
2017-06-15T12:11:54.826Z,8804
2017-06-15T12:12:54.798Z,9100
2017-06-15T12:13:55.159Z,8248
2017-06-15T12:14:54.833Z,7840
2017-06-15T12:15:54.824Z,6832
2017-06-15T12:16:54.815Z,6972
2017-06-15T12:17:54.524Z,6796
2017-06-15T12:18:54.502Z,6456
2017-06-15T12:19:55.155Z,6468
2017-06-15T12:20:54.839Z,6088
2017-06-15T12:21:55.172Z,6260
2017-06-15T12:22:54.877Z,5996
2017-06-15T12:23:54.541Z,5644
2017-06-15T12:24:55.196Z,5544
2017-06-15T12:25:54.879Z,5824
2017-06-15T12:26:55.179Z,5828
2017-06-15T12:27:55.213Z,5608
2017-06-15T12:28:54.882Z,5360
2017-06-15T12:29:55.189Z,5148
2017-06-15T12:30:54.885Z,4848
2017-06-15T12:31:55.229Z,4620
2017-06-15T12:32:55.247Z,4588
2017-06-15T12:33:54.566Z,4548
2017-06-15T12:34:54.596Z,4504
2017-06-15T12:35:55.233Z,4404
2017-06-15T12:36:54.924Z,4248
2017-06-15T12:37:55.226Z,4320
2017-06-15T12:38:54.929Z,4316
2017-06-15T12:39:54.921Z,4304
2017-06-15T12:40:55.256Z,4288
2017-06-15T12:41:54.950Z,4280
2017-06-15T12:42:54.984Z,4276
2017-06-15T12:43:55.255Z,4260
2017-06-15T12:44:54.945Z,4224
2017-06-15T12:45:55.263Z,4172
2017-06-15T12:46:54.951Z,4152
2017-06-15T12:47:54.633Z,4116
2017-06-15T12:48:54.963Z,4128
2017-06-15T12:49:54.678Z,4136
2017-06-15T12:50:54.978Z,4112
2017-06-15T12:51:54.706Z,4096
2017-06-15T12:52:55.296Z,4076
2017-06-15T12:53:55.304Z,4044
2017-06-15T12:54:54.690Z,4004
2017-06-15T12:55:55.332Z,3960
2017-06-15T12:56:55.093Z,3932
2017-06-15T12:57:55.339Z,3916
2017-06-15T12:58:55.004Z,3896
2017-06-15T12:59:55.047Z,3900
2017-06-15T13:00:55.029Z,3900
2017-06-15T13:01:54.694Z,3888
2017-06-15T13:02:54.704Z,3876
2017-06-15T13:03:55.349Z,3848
2017-06-15T13:04:54.728Z,3824
2017-06-15T13:05:54.708Z,3808
2017-06-15T13:06:55.070Z,3792
2017-06-15T13:07:54.725Z,3784
2017-06-15T13:08:55.047Z,3816
2017-06-15T13:09:55.393Z,3852
2017-06-15T13:10:54.755Z,3764
2017-06-15T13:11:55.063Z,3728
2017-06-15T13:12:55.391Z,3772
2017-06-15T13:13:55.074Z,3744
2017-06-15T13:14:55.397Z,3876
2017-06-15T13:15:55.096Z,4484
2017-06-15T13:16:55.112Z,5236
2017-06-15T13:17:55.101Z,5768
2017-06-15T13:18:55.111Z,6152
2017-06-15T13:19:55.437Z,6164
2017-06-15T13:20:54.779Z,5924
2017-06-15T13:21:55.129Z,5188
2017-06-15T13:22:55.127Z,4536
2017-06-15T13:23:55.438Z,4304
2017-06-15T13:24:55.450Z,4148
2017-06-15T13:25:54.495Z,4052
2017-06-15T13:26:55.154Z,4008
2017-06-15T13:27:55.150Z,3952
2017-06-15T13:28:55.159Z,3884
2017-06-15T13:29:55.459Z,3820
2017-06-15T13:30:55.172Z,3784
2017-06-15T13:31:55.191Z,3628
2017-06-15T13:32:55.178Z,3356
2017-06-15T13:33:55.159Z,3272